sensor_id;sensor_type;location;lat;lon;timestamp;P1;durP1;ratioP1;P2;durP2;ratioP2
24216;SDS011;12356;49.386;8.688;2023-06-14T00:01:59;6.72;;;4.70;;
24216;SDS011;12356;49.386;8.688;2023-06-14T00:04:30;10.23;;;4.68;;
24216;SDS011;12356;49.386;8.688;2023-06-14T00:07:01;8.55;;;4.85;;
24216;SDS011;12356;49.386;8.688;2023-06-14T00:09:31;7.68;;;4.53;;
24216;SDS011;12356;49.386;8.688;2023-06-14T00:12:02;7.65;;;5.30;;
24216;SDS011;12356;49.386;8.688;2023-06-14T00:14:32;6.57;;;4.53;;
24216;SDS011;12356;49.386;8.688;2023-06-14T00:17:03;5.10;;;4.60;;
24216;SDS011;12356;49.386;8.688;2023-06-14T00:19:34;8.23;;;4.85;;
24216;SDS011;12356;49.386;8.688;2023-06-14T00:22:05;7.63;;;4.90;;
24216;SDS011;12356;49.386;8.688;2023-06-14T00:24:36;8.40;;;4.82;;
24216;SDS011;12356;49.386;8.688;2023-06-14T00:27:06;8.00;;;4.82;;
24216;SDS011;12356;49.386;8.688;2023-06-14T00:29:37;6.50;;;5.15;;
24216;SDS011;12356;49.386;8.688;2023-06-14T00:32:08;8.00;;;4.78;;
24216;SDS011;12356;49.386;8.688;2023-06-14T00:34:38;6.10;;;5.22;;
24216;SDS011;12356;49.386;8.688;2023-06-14T00:37:09;6.75;;;4.82;;
24216;SDS011;12356;49.386;8.688;2023-06-14T00:39:40;7.00;;;5.10;;
24216;SDS011;12356;49.386;8.688;2023-06-14T00:42:10;8.43;;;5.15;;
24216;SDS011;12356;49.386;8.688;2023-06-14T00:44:41;5.60;;;4.90;;
24216;SDS011;12356;49.386;8.688;2023-06-14T00:47:11;6.97;;;5.13;;
24216;SDS011;12356;49.386;8.688;2023-06-14T00:49:42;7.90;;;5.15;;
24216;SDS011;12356;49.386;8.688;2023-06-14T00:52:13;7.05;;;4.75;;
24216;SDS011;12356;49.386;8.688;2023-06-14T00:54:45;7.07;;;4.80;;
24216;SDS011;12356;49.386;8.688;2023-06-14T00:57:16;8.77;;;4.60;;
24216;SDS011;12356;49.386;8.688;2023-06-14T00:59:47;10.40;;;5.10;;
24216;SDS011;12356;49.386;8.688;2023-06-14T01:02:18;6.68;;;4.82;;
24216;SDS011;12356;49.386;8.688;2023-06-14T01:04:49;8.48;;;5.05;;
24216;SDS011;12356;49.386;8.688;2023-06-14T01:07:25;8.43;;;4.50;;
24216;SDS011;12356;49.386;8.688;2023-06-14T01:10:21;7.18;;;4.63;;
24216;SDS011;12356;49.386;8.688;2023-06-14T01:13:33;10.45;;;4.70;;
24216;SDS011;12356;49.386;8.688;2023-06-14T01:16:06;9.63;;;4.60;;
24216;SDS011;12356;49.386;8.688;2023-06-14T01:18:38;5.32;;;4.28;;
24216;SDS011;12356;49.386;8.688;2023-06-14T01:21:19;5.85;;;4.47;;
24216;SDS011;12356;49.386;8.688;2023-06-14T01:23:53;6.35;;;4.32;;
24216;SDS011;12356;49.386;8.688;2023-06-14T01:26:24;7.47;;;4.40;;
24216;SDS011;12356;49.386;8.688;2023-06-14T01:28:56;6.80;;;4.72;;
24216;SDS011;12356;49.386;8.688;2023-06-14T01:31:28;6.70;;;4.60;;
24216;SDS011;12356;49.386;8.688;2023-06-14T01:34:09;8.70;;;4.82;;
24216;SDS011;12356;49.386;8.688;2023-06-14T01:36:40;7.93;;;4.85;;
24216;SDS011;12356;49.386;8.688;2023-06-14T01:39:13;8.02;;;4.57;;
24216;SDS011;12356;49.386;8.688;2023-06-14T01:41:45;7.30;;;5.07;;
24216;SDS011;12356;49.386;8.688;2023-06-14T01:44:17;13.73;;;5.10;;
24216;SDS011;12356;49.386;8.688;2023-06-14T01:46:48;6.88;;;4.63;;
24216;SDS011;12356;49.386;8.688;2023-06-14T01:49:20;7.53;;;4.90;;
24216;SDS011;12356;49.386;8.688;2023-06-14T01:51:50;9.43;;;4.88;;
24216;SDS011;12356;49.386;8.688;2023-06-14T01:54:21;5.80;;;4.70;;
24216;SDS011;12356;49.386;8.688;2023-06-14T01:56:52;6.25;;;4.80;;
24216;SDS011;12356;49.386;8.688;2023-06-14T01:59:23;7.20;;;4.93;;
24216;SDS011;12356;49.386;8.688;2023-06-14T02:01:54;7.45;;;5.20;;
24216;SDS011;12356;49.386;8.688;2023-06-14T02:04:24;6.28;;;4.60;;
24216;SDS011;12356;49.386;8.688;2023-06-14T02:06:55;8.40;;;4.72;;
24216;SDS011;12356;49.386;8.688;2023-06-14T02:09:26;9.30;;;4.82;;
24216;SDS011;12356;49.386;8.688;2023-06-14T02:11:57;10.88;;;4.80;;
24216;SDS011;12356;49.386;8.688;2023-06-14T02:14:27;8.10;;;4.80;;
24216;SDS011;12356;49.386;8.688;2023-06-14T02:16:58;8.25;;;5.13;;
24216;SDS011;12356;49.386;8.688;2023-06-14T02:19:31;7.43;;;4.68;;
24216;SDS011;12356;49.386;8.688;2023-06-14T02:22:01;9.10;;;5.13;;
24216;SDS011;12356;49.386;8.688;2023-06-14T02:24:32;8.57;;;4.82;;
24216;SDS011;12356;49.386;8.688;2023-06-14T02:27:03;6.63;;;5.00;;
24216;SDS011;12356;49.386;8.688;2023-06-14T02:29:33;7.90;;;5.03;;
24216;SDS011;12356;49.386;8.688;2023-06-14T02:32:04;7.38;;;4.68;;
24216;SDS011;12356;49.386;8.688;2023-06-14T02:34:37;6.13;;;5.03;;
24216;SDS011;12356;49.386;8.688;2023-06-14T02:37:11;10.35;;;5.10;;
24216;SDS011;12356;49.386;8.688;2023-06-14T02:39:43;5.53;;;4.75;;
24216;SDS011;12356;49.386;8.688;2023-06-14T02:42:13;6.05;;;4.82;;
24216;SDS011;12356;49.386;8.688;2023-06-14T02:44:44;8.18;;;5.57;;
24216;SDS011;12356;49.386;8.688;2023-06-14T02:49:47;5.68;;;4.80;;
24216;SDS011;12356;49.386;8.688;2023-06-14T02:52:18;8.63;;;4.85;;
24216;SDS011;12356;49.386;8.688;2023-06-14T02:54:48;8.30;;;4.82;;
24216;SDS011;12356;49.386;8.688;2023-06-14T02:57:19;8.18;;;5.10;;
24216;SDS011;12356;49.386;8.688;2023-06-14T02:59:53;8.32;;;5.00;;
24216;SDS011;12356;49.386;8.688;2023-06-14T03:02:23;7.07;;;4.93;;
24216;SDS011;12356;49.386;8.688;2023-06-14T03:04:54;9.65;;;5.18;;
24216;SDS011;12356;49.386;8.688;2023-06-14T03:07:25;8.33;;;5.07;;
24216;SDS011;12356;49.386;8.688;2023-06-14T03:09:57;7.68;;;5.35;;
24216;SDS011;12356;49.386;8.688;2023-06-14T03:12:28;7.40;;;4.80;;
24216;SDS011;12356;49.386;8.688;2023-06-14T03:14:58;8.63;;;5.07;;
24216;SDS011;12356;49.386;8.688;2023-06-14T03:17:34;8.45;;;4.95;;
24216;SDS011;12356;49.386;8.688;2023-06-14T03:20:05;7.85;;;4.63;;
24216;SDS011;12356;49.386;8.688;2023-06-14T03:22:36;9.45;;;5.15;;
24216;SDS011;12356;49.386;8.688;2023-06-14T03:25:07;6.13;;;4.60;;
24216;SDS011;12356;49.386;8.688;2023-06-14T03:27:40;8.13;;;4.90;;
24216;SDS011;12356;49.386;8.688;2023-06-14T03:30:10;8.07;;;4.95;;
24216;SDS011;12356;49.386;8.688;2023-06-14T03:32:41;5.68;;;5.07;;
24216;SDS011;12356;49.386;8.688;2023-06-14T03:35:12;7.40;;;4.85;;
24216;SDS011;12356;49.386;8.688;2023-06-14T03:37:47;7.55;;;4.97;;
24216;SDS011;12356;49.386;8.688;2023-06-14T03:40:18;10.07;;;4.90;;
24216;SDS011;12356;49.386;8.688;2023-06-14T03:42:50;7.68;;;5.05;;
24216;SDS011;12356;49.386;8.688;2023-06-14T03:45:20;8.10;;;5.10;;
24216;SDS011;12356;49.386;8.688;2023-06-14T03:47:51;8.75;;;4.90;;
24216;SDS011;12356;49.386;8.688;2023-06-14T03:50:22;9.65;;;5.35;;
24216;SDS011;12356;49.386;8.688;2023-06-14T03:52:53;10.15;;;5.15;;
24216;SDS011;12356;49.386;8.688;2023-06-14T03:55:24;8.88;;;5.10;;
24216;SDS011;12356;49.386;8.688;2023-06-14T03:57:57;9.23;;;5.30;;
24216;SDS011;12356;49.386;8.688;2023-06-14T04:00:28;11.45;;;5.40;;
24216;SDS011;12356;49.386;8.688;2023-06-14T04:02:58;10.00;;;5.10;;
24216;SDS011;12356;49.386;8.688;2023-06-14T04:05:29;9.82;;;5.13;;
24216;SDS011;12356;49.386;8.688;2023-06-14T04:08:00;10.10;;;4.93;;
24216;SDS011;12356;49.386;8.688;2023-06-14T04:10:31;9.75;;;5.70;;
24216;SDS011;12356;49.386;8.688;2023-06-14T04:13:02;7.07;;;5.15;;
24216;SDS011;12356;49.386;8.688;2023-06-14T04:15:32;10.48;;;5.57;;
24216;SDS011;12356;49.386;8.688;2023-06-14T04:18:03;9.70;;;5.63;;
24216;SDS011;12356;49.386;8.688;2023-06-14T04:20:34;9.27;;;5.32;;
24216;SDS011;12356;49.386;8.688;2023-06-14T04:23:11;7.57;;;5.25;;
24216;SDS011;12356;49.386;8.688;2023-06-14T04:25:43;9.27;;;5.47;;
24216;SDS011;12356;49.386;8.688;2023-06-14T04:28:17;8.02;;;5.53;;
24216;SDS011;12356;49.386;8.688;2023-06-14T04:30:48;7.80;;;5.28;;
24216;SDS011;12356;49.386;8.688;2023-06-14T04:33:19;7.70;;;5.10;;
24216;SDS011;12356;49.386;8.688;2023-06-14T04:35:49;7.35;;;5.63;;
24216;SDS011;12356;49.386;8.688;2023-06-14T04:38:23;7.85;;;5.78;;
24216;SDS011;12356;49.386;8.688;2023-06-14T04:40:55;9.20;;;5.45;;
24216;SDS011;12356;49.386;8.688;2023-06-14T04:43:26;7.63;;;5.77;;
24216;SDS011;12356;49.386;8.688;2023-06-14T04:45:57;18.25;;;6.32;;
24216;SDS011;12356;49.386;8.688;2023-06-14T04:48:28;23.80;;;7.00;;
24216;SDS011;12356;49.386;8.688;2023-06-14T04:50:58;20.33;;;7.00;;
24216;SDS011;12356;49.386;8.688;2023-06-14T04:53:29;23.48;;;7.70;;
24216;SDS011;12356;49.386;8.688;2023-06-14T04:56:01;17.40;;;6.85;;
24216;SDS011;12356;49.386;8.688;2023-06-14T04:58:32;10.43;;;6.18;;
24216;SDS011;12356;49.386;8.688;2023-06-14T05:01:03;12.98;;;6.22;;
24216;SDS011;12356;49.386;8.688;2023-06-14T05:03:34;10.40;;;5.88;;
24216;SDS011;12356;49.386;8.688;2023-06-14T05:06:04;9.95;;;5.75;;
24216;SDS011;12356;49.386;8.688;2023-06-14T05:08:36;8.93;;;5.60;;
24216;SDS011;12356;49.386;8.688;2023-06-14T05:11:06;8.90;;;6.05;;
24216;SDS011;12356;49.386;8.688;2023-06-14T05:13:37;10.88;;;6.05;;
24216;SDS011;12356;49.386;8.688;2023-06-14T05:16:10;6.90;;;6.00;;
24216;SDS011;12356;49.386;8.688;2023-06-14T05:18:41;10.52;;;6.32;;
24216;SDS011;12356;49.386;8.688;2023-06-14T05:21:11;12.88;;;6.15;;
24216;SDS011;12356;49.386;8.688;2023-06-14T05:23:42;12.73;;;7.07;;
24216;SDS011;12356;49.386;8.688;2023-06-14T05:26:14;11.35;;;6.45;;
24216;SDS011;12356;49.386;8.688;2023-06-14T05:28:45;12.52;;;6.75;;
24216;SDS011;12356;49.386;8.688;2023-06-14T05:31:15;24.15;;;7.47;;
24216;SDS011;12356;49.386;8.688;2023-06-14T05:33:46;9.65;;;6.90;;
24216;SDS011;12356;49.386;8.688;2023-06-14T05:36:16;20.30;;;7.43;;
24216;SDS011;12356;49.386;8.688;2023-06-14T05:38:47;15.18;;;6.70;;
24216;SDS011;12356;49.386;8.688;2023-06-14T05:41:18;13.52;;;6.25;;
24216;SDS011;12356;49.386;8.688;2023-06-14T05:43:50;13.38;;;6.78;;
24216;SDS011;12356;49.386;8.688;2023-06-14T05:46:21;14.40;;;6.90;;
24216;SDS011;12356;49.386;8.688;2023-06-14T05:48:54;13.93;;;6.30;;
24216;SDS011;12356;49.386;8.688;2023-06-14T05:51:25;15.68;;;6.90;;
24216;SDS011;12356;49.386;8.688;2023-06-14T05:53:56;10.95;;;6.57;;
24216;SDS011;12356;49.386;8.688;2023-06-14T05:56:27;8.40;;;6.45;;
24216;SDS011;12356;49.386;8.688;2023-06-14T05:58:57;12.25;;;6.65;;
24216;SDS011;12356;49.386;8.688;2023-06-14T06:01:28;14.57;;;6.53;;
24216;SDS011;12356;49.386;8.688;2023-06-14T06:03:58;15.45;;;6.65;;
24216;SDS011;12356;49.386;8.688;2023-06-14T06:06:29;10.45;;;6.90;;
24216;SDS011;12356;49.386;8.688;2023-06-14T06:09:00;11.25;;;6.53;;
24216;SDS011;12356;49.386;8.688;2023-06-14T06:11:30;11.40;;;7.22;;
24216;SDS011;12356;49.386;8.688;2023-06-14T06:14:01;10.40;;;7.18;;
24216;SDS011;12356;49.386;8.688;2023-06-14T06:16:31;14.40;;;7.13;;
24216;SDS011;12356;49.386;8.688;2023-06-14T06:19:02;10.05;;;6.53;;
24216;SDS011;12356;49.386;8.688;2023-06-14T06:21:33;14.77;;;7.28;;
24216;SDS011;12356;49.386;8.688;2023-06-14T06:24:04;12.70;;;6.97;;
24216;SDS011;12356;49.386;8.688;2023-06-14T06:26:35;13.23;;;6.50;;
24216;SDS011;12356;49.386;8.688;2023-06-14T06:29:06;10.80;;;6.78;;
24216;SDS011;12356;49.386;8.688;2023-06-14T06:31:37;14.02;;;6.47;;
24216;SDS011;12356;49.386;8.688;2023-06-14T06:34:07;13.35;;;6.55;;
24216;SDS011;12356;49.386;8.688;2023-06-14T06:36:38;10.05;;;6.05;;
24216;SDS011;12356;49.386;8.688;2023-06-14T06:39:08;11.35;;;6.18;;
24216;SDS011;12356;49.386;8.688;2023-06-14T06:41:40;7.43;;;6.18;;
24216;SDS011;12356;49.386;8.688;2023-06-14T06:44:10;11.30;;;6.35;;
24216;SDS011;12356;49.386;8.688;2023-06-14T06:46:43;11.68;;;6.13;;
24216;SDS011;12356;49.386;8.688;2023-06-14T06:49:13;7.75;;;5.93;;
24216;SDS011;12356;49.386;8.688;2023-06-14T06:51:54;10.55;;;6.10;;
24216;SDS011;12356;49.386;8.688;2023-06-14T06:54:32;11.20;;;5.95;;
24216;SDS011;12356;49.386;8.688;2023-06-14T06:57:04;8.68;;;5.65;;
24216;SDS011;12356;49.386;8.688;2023-06-14T06:59:35;10.32;;;5.55;;
24216;SDS011;12356;49.386;8.688;2023-06-14T07:02:06;15.73;;;5.60;;
24216;SDS011;12356;49.386;8.688;2023-06-14T07:04:37;8.20;;;5.28;;
24216;SDS011;12356;49.386;8.688;2023-06-14T07:07:07;9.40;;;5.68;;
24216;SDS011;12356;49.386;8.688;2023-06-14T07:09:39;11.13;;;5.60;;
24216;SDS011;12356;49.386;8.688;2023-06-14T07:12:11;6.65;;;4.88;;
24216;SDS011;12356;49.386;8.688;2023-06-14T07:14:42;7.90;;;5.20;;
24216;SDS011;12356;49.386;8.688;2023-06-14T07:17:13;10.07;;;5.50;;
24216;SDS011;12356;49.386;8.688;2023-06-14T07:19:43;8.40;;;5.07;;
24216;SDS011;12356;49.386;8.688;2023-06-14T07:22:14;8.82;;;5.50;;
24216;SDS011;12356;49.386;8.688;2023-06-14T07:24:44;8.15;;;5.45;;
24216;SDS011;12356;49.386;8.688;2023-06-14T07:27:15;12.93;;;5.50;;
24216;SDS011;12356;49.386;8.688;2023-06-14T07:29:45;12.65;;;5.82;;
24216;SDS011;12356;49.386;8.688;2023-06-14T07:32:16;10.18;;;5.40;;
24216;SDS011;12356;49.386;8.688;2023-06-14T07:34:46;8.85;;;5.13;;
24216;SDS011;12356;49.386;8.688;2023-06-14T07:37:17;10.32;;;5.38;;
24216;SDS011;12356;49.386;8.688;2023-06-14T07:39:47;11.68;;;4.90;;
24216;SDS011;12356;49.386;8.688;2023-06-14T07:42:19;10.32;;;5.10;;
24216;SDS011;12356;49.386;8.688;2023-06-14T07:44:49;6.43;;;5.22;;
24216;SDS011;12356;49.386;8.688;2023-06-14T07:47:22;9.00;;;5.50;;
24216;SDS011;12356;49.386;8.688;2023-06-14T07:49:52;7.70;;;4.65;;
24216;SDS011;12356;49.386;8.688;2023-06-14T07:52:23;10.48;;;5.07;;
24216;SDS011;12356;49.386;8.688;2023-06-14T07:54:53;10.00;;;5.30;;
24216;SDS011;12356;49.386;8.688;2023-06-14T07:57:24;7.43;;;4.90;;
24216;SDS011;12356;49.386;8.688;2023-06-14T07:59:55;8.07;;;4.57;;
24216;SDS011;12356;49.386;8.688;2023-06-14T08:02:25;9.13;;;4.85;;
24216;SDS011;12356;49.386;8.688;2023-06-14T08:04:56;5.63;;;4.10;;
24216;SDS011;12356;49.386;8.688;2023-06-14T08:07:27;7.03;;;4.60;;
24216;SDS011;12356;49.386;8.688;2023-06-14T08:09:57;5.32;;;4.78;;
24216;SDS011;12356;49.386;8.688;2023-06-14T08:12:28;8.70;;;5.00;;
24216;SDS011;12356;49.386;8.688;2023-06-14T08:14:58;5.63;;;4.45;;
24216;SDS011;12356;49.386;8.688;2023-06-14T08:17:29;6.60;;;4.70;;
24216;SDS011;12356;49.386;8.688;2023-06-14T08:20:00;10.15;;;4.35;;
24216;SDS011;12356;49.386;8.688;2023-06-14T08:22:31;6.85;;;4.80;;
24216;SDS011;12356;49.386;8.688;2023-06-14T08:25:04;8.27;;;4.70;;
24216;SDS011;12356;49.386;8.688;2023-06-14T08:27:35;6.00;;;4.65;;
24216;SDS011;12356;49.386;8.688;2023-06-14T08:30:06;7.38;;;4.35;;
24216;SDS011;12356;49.386;8.688;2023-06-14T08:32:38;6.28;;;4.47;;
24216;SDS011;12356;49.386;8.688;2023-06-14T08:35:08;8.75;;;4.50;;
24216;SDS011;12356;49.386;8.688;2023-06-14T08:37:42;6.13;;;4.45;;
24216;SDS011;12356;49.386;8.688;2023-06-14T08:40:20;7.32;;;4.40;;
24216;SDS011;12356;49.386;8.688;2023-06-14T08:42:52;5.47;;;4.22;;
24216;SDS011;12356;49.386;8.688;2023-06-14T08:45:24;9.82;;;4.28;;
24216;SDS011;12356;49.386;8.688;2023-06-14T08:47:55;8.05;;;4.30;;
24216;SDS011;12356;49.386;8.688;2023-06-14T08:50:29;4.82;;;3.80;;
24216;SDS011;12356;49.386;8.688;2023-06-14T08:53:02;5.60;;;3.90;;
24216;SDS011;12356;49.386;8.688;2023-06-14T08:55:33;5.65;;;4.47;;
24216;SDS011;12356;49.386;8.688;2023-06-14T08:58:03;7.30;;;4.43;;
24216;SDS011;12356;49.386;8.688;2023-06-14T09:00:35;7.30;;;4.20;;
24216;SDS011;12356;49.386;8.688;2023-06-14T09:03:08;11.93;;;4.18;;
24216;SDS011;12356;49.386;8.688;2023-06-14T09:05:43;6.60;;;4.00;;
24216;SDS011;12356;49.386;8.688;2023-06-14T09:08:14;6.28;;;4.28;;
24216;SDS011;12356;49.386;8.688;2023-06-14T09:10:46;5.77;;;4.23;;
24216;SDS011;12356;49.386;8.688;2023-06-14T09:13:17;8.48;;;4.03;;
24216;SDS011;12356;49.386;8.688;2023-06-14T09:15:48;6.40;;;4.00;;
24216;SDS011;12356;49.386;8.688;2023-06-14T09:18:18;9.90;;;4.10;;
24216;SDS011;12356;49.386;8.688;2023-06-14T09:20:52;7.53;;;3.80;;
24216;SDS011;12356;49.386;8.688;2023-06-14T09:23:23;4.95;;;3.92;;
24216;SDS011;12356;49.386;8.688;2023-06-14T09:25:54;4.22;;;3.83;;
24216;SDS011;12356;49.386;8.688;2023-06-14T09:28:27;6.32;;;4.07;;
24216;SDS011;12356;49.386;8.688;2023-06-14T09:30:58;5.78;;;4.00;;
24216;SDS011;12356;49.386;8.688;2023-06-14T09:33:30;5.15;;;4.10;;
24216;SDS011;12356;49.386;8.688;2023-06-14T09:36:01;7.97;;;4.00;;
24216;SDS011;12356;49.386;8.688;2023-06-14T09:38:34;6.30;;;4.10;;
24216;SDS011;12356;49.386;8.688;2023-06-14T09:41:04;6.93;;;4.13;;
24216;SDS011;12356;49.386;8.688;2023-06-14T09:43:35;6.50;;;3.70;;
24216;SDS011;12356;49.386;8.688;2023-06-14T09:46:07;7.13;;;3.83;;
24216;SDS011;12356;49.386;8.688;2023-06-14T09:48:39;5.53;;;3.95;;
24216;SDS011;12356;49.386;8.688;2023-06-14T09:51:13;9.50;;;3.40;;
24216;SDS011;12356;49.386;8.688;2023-06-14T09:56:29;7.57;;;3.42;;
24216;SDS011;12356;49.386;8.688;2023-06-14T09:59:04;6.78;;;3.90;;
24216;SDS011;12356;49.386;8.688;2023-06-14T10:01:42;6.60;;;3.70;;
24216;SDS011;12356;49.386;8.688;2023-06-14T10:04:13;4.82;;;3.38;;
24216;SDS011;12356;49.386;8.688;2023-06-14T10:06:45;6.45;;;3.42;;
24216;SDS011;12356;49.386;8.688;2023-06-14T10:09:16;7.55;;;4.03;;
24216;SDS011;12356;49.386;8.688;2023-06-14T10:11:47;4.32;;;3.63;;
24216;SDS011;12356;49.386;8.688;2023-06-14T10:14:19;5.97;;;3.50;;
24216;SDS011;12356;49.386;8.688;2023-06-14T10:17:00;7.63;;;3.75;;
24216;SDS011;12356;49.386;8.688;2023-06-14T10:19:36;4.22;;;3.58;;
24216;SDS011;12356;49.386;8.688;2023-06-14T10:22:27;4.95;;;3.65;;
24216;SDS011;12356;49.386;8.688;2023-06-14T10:25:02;4.65;;;3.50;;
24216;SDS011;12356;49.386;8.688;2023-06-14T10:27:44;8.95;;;3.92;;
24216;SDS011;12356;49.386;8.688;2023-06-14T10:30:15;4.85;;;3.50;;
24216;SDS011;12356;49.386;8.688;2023-06-14T10:35:37;6.18;;;3.42;;
24216;SDS011;12356;49.386;8.688;2023-06-14T10:38:13;4.45;;;3.90;;
24216;SDS011;12356;49.386;8.688;2023-06-14T10:40:44;5.03;;;3.60;;
24216;SDS011;12356;49.386;8.688;2023-06-14T10:43:24;5.22;;;3.72;;
24216;SDS011;12356;49.386;8.688;2023-06-14T10:46:14;4.82;;;3.70;;
24216;SDS011;12356;49.386;8.688;2023-06-14T10:48:48;6.32;;;3.85;;
24216;SDS011;12356;49.386;8.688;2023-06-14T10:51:19;4.70;;;3.80;;
24216;SDS011;12356;49.386;8.688;2023-06-14T10:53:50;6.13;;;3.65;;
24216;SDS011;12356;49.386;8.688;2023-06-14T10:58:58;4.70;;;3.80;;
24216;SDS011;12356;49.386;8.688;2023-06-14T11:01:36;6.05;;;3.60;;
24216;SDS011;12356;49.386;8.688;2023-06-14T11:04:12;3.85;;;3.42;;
24216;SDS011;12356;49.386;8.688;2023-06-14T11:06:46;4.25;;;3.53;;
24216;SDS011;12356;49.386;8.688;2023-06-14T11:11:56;4.97;;;3.85;;
24216;SDS011;12356;49.386;8.688;2023-06-14T11:14:29;6.60;;;3.83;;
24216;SDS011;12356;49.386;8.688;2023-06-14T11:17:01;6.25;;;3.90;;
24216;SDS011;12356;49.386;8.688;2023-06-14T11:19:31;6.80;;;3.80;;
24216;SDS011;12356;49.386;8.688;2023-06-14T11:22:02;7.03;;;3.35;;
24216;SDS011;12356;49.386;8.688;2023-06-14T11:24:33;6.22;;;3.58;;
24216;SDS011;12356;49.386;8.688;2023-06-14T11:27:03;5.20;;;3.22;;
24216;SDS011;12356;49.386;8.688;2023-06-14T11:32:07;5.53;;;3.58;;
24216;SDS011;12356;49.386;8.688;2023-06-14T11:34:42;5.15;;;3.50;;
24216;SDS011;12356;49.386;8.688;2023-06-14T11:37:16;7.03;;;3.65;;
24216;SDS011;12356;49.386;8.688;2023-06-14T11:39:47;4.55;;;3.97;;
24216;SDS011;12356;49.386;8.688;2023-06-14T11:42:18;6.03;;;3.88;;
24216;SDS011;12356;49.386;8.688;2023-06-14T11:44:51;5.10;;;3.78;;
24216;SDS011;12356;49.386;8.688;2023-06-14T11:47:23;6.35;;;3.72;;
24216;SDS011;12356;49.386;8.688;2023-06-14T11:49:54;4.85;;;4.15;;
24216;SDS011;12356;49.386;8.688;2023-06-14T11:52:24;8.80;;;4.15;;
24216;SDS011;12356;49.386;8.688;2023-06-14T11:54:55;7.55;;;3.83;;
24216;SDS011;12356;49.386;8.688;2023-06-14T11:57:27;7.65;;;4.55;;
24216;SDS011;12356;49.386;8.688;2023-06-14T11:59:57;3.83;;;3.50;;
24216;SDS011;12356;49.386;8.688;2023-06-14T12:02:28;5.20;;;3.72;;
24216;SDS011;12356;49.386;8.688;2023-06-14T12:05:04;4.80;;;3.90;;
24216;SDS011;12356;49.386;8.688;2023-06-14T12:07:37;5.75;;;3.90;;
24216;SDS011;12356;49.386;8.688;2023-06-14T12:10:09;7.55;;;3.95;;
24216;SDS011;12356;49.386;8.688;2023-06-14T12:12:40;6.93;;;3.97;;
24216;SDS011;12356;49.386;8.688;2023-06-14T12:15:11;6.32;;;3.83;;
24216;SDS011;12356;49.386;8.688;2023-06-14T12:17:42;5.07;;;3.85;;
24216;SDS011;12356;49.386;8.688;2023-06-14T12:20:13;6.57;;;3.90;;
24216;SDS011;12356;49.386;8.688;2023-06-14T12:22:52;5.93;;;4.00;;
24216;SDS011;12356;49.386;8.688;2023-06-14T12:25:33;6.78;;;4.03;;
24216;SDS011;12356;49.386;8.688;2023-06-14T12:28:06;10.63;;;4.18;;
24216;SDS011;12356;49.386;8.688;2023-06-14T12:33:08;6.38;;;4.15;;
24216;SDS011;12356;49.386;8.688;2023-06-14T12:35:39;6.03;;;3.90;;
24216;SDS011;12356;49.386;8.688;2023-06-14T12:38:10;4.30;;;3.85;;
24216;SDS011;12356;49.386;8.688;2023-06-14T12:40:40;5.38;;;3.97;;
24216;SDS011;12356;49.386;8.688;2023-06-14T12:43:12;5.70;;;3.92;;
24216;SDS011;12356;49.386;8.688;2023-06-14T12:45:42;4.82;;;3.80;;
24216;SDS011;12356;49.386;8.688;2023-06-14T12:48:13;6.13;;;3.90;;
24216;SDS011;12356;49.386;8.688;2023-06-14T12:50:43;5.82;;;3.80;;
24216;SDS011;12356;49.386;8.688;2023-06-14T12:53:14;6.97;;;3.90;;
24216;SDS011;12356;49.386;8.688;2023-06-14T12:55:44;6.65;;;3.90;;
24216;SDS011;12356;49.386;8.688;2023-06-14T12:58:15;7.22;;;4.45;;
24216;SDS011;12356;49.386;8.688;2023-06-14T13:00:47;6.88;;;3.60;;
24216;SDS011;12356;49.386;8.688;2023-06-14T13:03:18;6.10;;;4.00;;
24216;SDS011;12356;49.386;8.688;2023-06-14T13:05:48;4.85;;;3.78;;
24216;SDS011;12356;49.386;8.688;2023-06-14T13:08:19;4.63;;;4.00;;
24216;SDS011;12356;49.386;8.688;2023-06-14T13:10:50;5.28;;;3.90;;
24216;SDS011;12356;49.386;8.688;2023-06-14T13:13:21;7.07;;;4.00;;
24216;SDS011;12356;49.386;8.688;2023-06-14T13:15:51;5.85;;;3.80;;
24216;SDS011;12356;49.386;8.688;2023-06-14T13:18:22;6.55;;;3.97;;
24216;SDS011;12356;49.386;8.688;2023-06-14T13:20:52;7.38;;;4.40;;
24216;SDS011;12356;49.386;8.688;2023-06-14T13:23:23;6.80;;;4.28;;
24216;SDS011;12356;49.386;8.688;2023-06-14T13:25:53;6.45;;;4.30;;
24216;SDS011;12356;49.386;8.688;2023-06-14T13:28:24;7.43;;;4.13;;
24216;SDS011;12356;49.386;8.688;2023-06-14T13:30:55;7.72;;;4.15;;
24216;SDS011;12356;49.386;8.688;2023-06-14T13:33:25;5.85;;;3.88;;
24216;SDS011;12356;49.386;8.688;2023-06-14T13:35:56;7.20;;;4.32;;
24216;SDS011;12356;49.386;8.688;2023-06-14T13:38:27;8.38;;;4.05;;
24216;SDS011;12356;49.386;8.688;2023-06-14T13:40:57;4.68;;;4.28;;
24216;SDS011;12356;49.386;8.688;2023-06-14T13:43:28;6.35;;;4.15;;
24216;SDS011;12356;49.386;8.688;2023-06-14T13:45:58;8.95;;;3.92;;
24216;SDS011;12356;49.386;8.688;2023-06-14T13:48:29;6.70;;;4.18;;
24216;SDS011;12356;49.386;8.688;2023-06-14T13:51:00;5.28;;;4.18;;
24216;SDS011;12356;49.386;8.688;2023-06-14T13:53:30;6.72;;;4.30;;
24216;SDS011;12356;49.386;8.688;2023-06-14T13:56:01;5.82;;;4.30;;
24216;SDS011;12356;49.386;8.688;2023-06-14T13:58:32;5.20;;;3.97;;
24216;SDS011;12356;49.386;8.688;2023-06-14T14:01:03;4.95;;;4.00;;
24216;SDS011;12356;49.386;8.688;2023-06-14T14:03:33;6.60;;;4.28;;
24216;SDS011;12356;49.386;8.688;2023-06-14T14:06:04;6.70;;;4.45;;
24216;SDS011;12356;49.386;8.688;2023-06-14T14:08:37;7.82;;;4.25;;
24216;SDS011;12356;49.386;8.688;2023-06-14T14:11:07;7.82;;;4.50;;
24216;SDS011;12356;49.386;8.688;2023-06-14T14:13:38;8.55;;;4.40;;
24216;SDS011;12356;49.386;8.688;2023-06-14T14:16:10;7.27;;;4.50;;
24216;SDS011;12356;49.386;8.688;2023-06-14T14:18:40;6.65;;;4.07;;
24216;SDS011;12356;49.386;8.688;2023-06-14T14:21:11;7.40;;;4.18;;
24216;SDS011;12356;49.386;8.688;2023-06-14T14:23:42;5.78;;;4.22;;
24216;SDS011;12356;49.386;8.688;2023-06-14T14:26:12;6.05;;;4.38;;
24216;SDS011;12356;49.386;8.688;2023-06-14T14:28:43;4.85;;;4.00;;
24216;SDS011;12356;49.386;8.688;2023-06-14T14:31:13;6.93;;;4.05;;
24216;SDS011;12356;49.386;8.688;2023-06-14T14:33:44;5.03;;;4.25;;
24216;SDS011;12356;49.386;8.688;2023-06-14T14:36:15;7.57;;;3.97;;
24216;SDS011;12356;49.386;8.688;2023-06-14T14:38:45;5.07;;;3.85;;
24216;SDS011;12356;49.386;8.688;2023-06-14T14:41:17;6.28;;;4.20;;
24216;SDS011;12356;49.386;8.688;2023-06-14T14:43:47;7.70;;;4.32;;
24216;SDS011;12356;49.386;8.688;2023-06-14T14:46:18;5.63;;;4.07;;
24216;SDS011;12356;49.386;8.688;2023-06-14T14:48:48;5.47;;;4.20;;
24216;SDS011;12356;49.386;8.688;2023-06-14T14:51:19;4.68;;;4.20;;
24216;SDS011;12356;49.386;8.688;2023-06-14T14:53:49;8.90;;;4.53;;
24216;SDS011;12356;49.386;8.688;2023-06-14T14:56:22;6.60;;;4.47;;
24216;SDS011;12356;49.386;8.688;2023-06-14T14:58:53;7.32;;;4.30;;
24216;SDS011;12356;49.386;8.688;2023-06-14T15:01:24;9.30;;;4.22;;
24216;SDS011;12356;49.386;8.688;2023-06-14T15:03:54;6.20;;;4.15;;
24216;SDS011;12356;49.386;8.688;2023-06-14T15:06:25;5.15;;;3.70;;
24216;SDS011;12356;49.386;8.688;2023-06-14T15:08:56;6.90;;;5.68;;
24216;SDS011;12356;49.386;8.688;2023-06-14T15:11:27;4.93;;;4.03;;
24216;SDS011;12356;49.386;8.688;2023-06-14T15:13:57;5.03;;;4.00;;
24216;SDS011;12356;49.386;8.688;2023-06-14T15:16:28;6.53;;;4.20;;
24216;SDS011;12356;49.386;8.688;2023-06-14T15:18:59;6.28;;;4.05;;
24216;SDS011;12356;49.386;8.688;2023-06-14T15:21:29;7.13;;;4.30;;
24216;SDS011;12356;49.386;8.688;2023-06-14T15:24:00;5.93;;;4.10;;
24216;SDS011;12356;49.386;8.688;2023-06-14T15:26:30;4.45;;;3.80;;
24216;SDS011;12356;49.386;8.688;2023-06-14T15:29:01;5.57;;;4.00;;
24216;SDS011;12356;49.386;8.688;2023-06-14T15:31:32;5.50;;;3.83;;